EGPH/EDI METAR and TAF weather

Enter ICAO airport designator
Station Type Date Time Source
EGPH METAR 2019/12/11 15:20 UTC NOAA

EGPH 111520Z 25009KT 9999 -RA SCT018 05/03 Q0992


Station Type Date Time Source
EGPH Decoded METAR 2019/12/11 15:20 UTC NOAA

Edinburgh Airport, United Kingdom (EGPH) 55-57N 003-21W 0M
Dec 11, 2019 - 10:20 AM EST / 2019.12.11 1520 UTC
Wind: from the WSW (250 degrees) at 10 MPH (9 KT):0
Visibility: greater than 7 mile(s):0
Sky conditions: partly cloudy
Weather: light rain
Temperature: 41 F (5 C)
Dew Point: 37 F (3 C)
Relative Humidity: 86%
Pressure (altimeter): 29.29 in. Hg (0992 hPa)
ob: EGPH 111520Z 25009KT 9999 -RA SCT018 05/03 Q0992
cycle: 15

Station Type Date Time Source
EGPH TAF 2019/12/11 12:09 UTC NOAA

TAF EGPH 111057Z 1112/1212 22016KT 9999 SCT020 PROB40
TEMPO 1112/1206 24020G30KT 7000 SHRA BKN010
BECMG 1209/1212 10009KT

Example: see airport list